sensor_id;sensor_type;location;lat;lon;timestamp;temperature;humidity
66928;DHT22;59882;45.624;11.698;2023-09-19T00:01:08;21.90;82.80
66928;DHT22;59882;45.624;11.698;2023-09-19T00:03:34;21.90;82.80
66928;DHT22;59882;45.624;11.698;2023-09-19T00:06:03;21.90;82.90
66928;DHT22;59882;45.624;11.698;2023-09-19T00:08:30;21.90;82.80
66928;DHT22;59882;45.624;11.698;2023-09-19T00:10:56;21.80;82.90
66928;DHT22;59882;45.624;11.698;2023-09-19T00:13:24;21.80;82.90
66928;DHT22;59882;45.624;11.698;2023-09-19T00:15:50;21.80;82.90
66928;DHT22;59882;45.624;11.698;2023-09-19T00:18:17;21.80;82.90
66928;DHT22;59882;45.624;11.698;2023-09-19T00:20:44;21.70;83.10
66928;DHT22;59882;45.624;11.698;2023-09-19T00:23:13;21.70;83.00
66928;DHT22;59882;45.624;11.698;2023-09-19T00:25:39;21.70;83.10
66928;DHT22;59882;45.624;11.698;2023-09-19T00:28:05;21.60;83.00
66928;DHT22;59882;45.624;11.698;2023-09-19T00:30:35;21.60;83.00
66928;DHT22;59882;45.624;11.698;2023-09-19T00:33:02;21.60;83.00
66928;DHT22;59882;45.624;11.698;2023-09-19T00:35:31;21.60;83.00
66928;DHT22;59882;45.624;11.698;2023-09-19T00:37:57;21.50;82.90
66928;DHT22;59882;45.624;11.698;2023-09-19T00:40:22;21.50;83.00
66928;DHT22;59882;45.624;11.698;2023-09-19T00:42:49;21.40;83.00
66928;DHT22;59882;45.624;11.698;2023-09-19T00:45:17;21.40;83.00
66928;DHT22;59882;45.624;11.698;2023-09-19T00:47:45;21.40;83.10
66928;DHT22;59882;45.624;11.698;2023-09-19T00:50:12;21.30;83.10
66928;DHT22;59882;45.624;11.698;2023-09-19T00:52:40;21.40;83.10
66928;DHT22;59882;45.624;11.698;2023-09-19T00:55:08;21.30;83.10
66928;DHT22;59882;45.624;11.698;2023-09-19T00:57:35;21.30;83.20
66928;DHT22;59882;45.624;11.698;2023-09-19T01:00:02;21.30;83.30
66928;DHT22;59882;45.624;11.698;2023-09-19T01:02:32;21.20;83.20
66928;DHT22;59882;45.624;11.698;2023-09-19T01:04:58;21.20;83.20
66928;DHT22;59882;45.624;11.698;2023-09-19T01:07:25;21.20;83.10
66928;DHT22;59882;45.624;11.698;2023-09-19T01:09:51;21.20;83.10
66928;DHT22;59882;45.624;11.698;2023-09-19T01:12:24;21.30;83.10
66928;DHT22;59882;45.624;11.698;2023-09-19T01:14:56;21.20;83.20
66928;DHT22;59882;45.624;11.698;2023-09-19T01:17:46;21.20;83.10
66928;DHT22;59882;45.624;11.698;2023-09-19T01:20:27;21.20;83.20
66928;DHT22;59882;45.624;11.698;2023-09-19T01:29:38;21.10;83.20
66928;DHT22;59882;45.624;11.698;2023-09-19T01:32:05;21.00;83.10
66928;DHT22;59882;45.624;11.698;2023-09-19T01:35:04;21.00;83.10
66928;DHT22;59882;45.624;11.698;2023-09-19T01:37:29;20.90;83.30
66928;DHT22;59882;45.624;11.698;2023-09-19T01:40:03;20.90;83.30
66928;DHT22;59882;45.624;11.698;2023-09-19T01:43:17;20.90;83.40
66928;DHT22;59882;45.624;11.698;2023-09-19T01:48:38;20.90;83.40
66928;DHT22;59882;45.624;11.698;2023-09-19T01:51:10;20.90;83.30
66928;DHT22;59882;45.624;11.698;2023-09-19T01:56:22;20.90;83.40
66928;DHT22;59882;45.624;11.698;2023-09-19T01:58:55;20.90;83.40
66928;DHT22;59882;45.624;11.698;2023-09-19T02:01:24;20.90;83.30
66928;DHT22;59882;45.624;11.698;2023-09-19T02:03:52;20.80;83.30
66928;DHT22;59882;45.624;11.698;2023-09-19T02:06:19;20.90;83.30
66928;DHT22;59882;45.624;11.698;2023-09-19T02:08:46;20.90;83.30
66928;DHT22;59882;45.624;11.698;2023-09-19T02:11:13;20.80;83.20
66928;DHT22;59882;45.624;11.698;2023-09-19T02:13:39;20.80;83.20
66928;DHT22;59882;45.624;11.698;2023-09-19T02:16:06;20.80;83.30
66928;DHT22;59882;45.624;11.698;2023-09-19T02:18:32;20.80;83.30
66928;DHT22;59882;45.624;11.698;2023-09-19T02:21:01;20.70;83.30
66928;DHT22;59882;45.624;11.698;2023-09-19T02:23:27;20.60;83.30
66928;DHT22;59882;45.624;11.698;2023-09-19T02:25:53;20.60;83.40
66928;DHT22;59882;45.624;11.698;2023-09-19T02:28:19;20.70;83.40
66928;DHT22;59882;45.624;11.698;2023-09-19T02:30:48;20.60;83.40
66928;DHT22;59882;45.624;11.698;2023-09-19T02:33:14;20.70;83.40
66928;DHT22;59882;45.624;11.698;2023-09-19T02:35:40;20.60;83.40
66928;DHT22;59882;45.624;11.698;2023-09-19T02:38:06;20.60;83.40
66928;DHT22;59882;45.624;11.698;2023-09-19T02:40:33;20.50;83.40
66928;DHT22;59882;45.624;11.698;2023-09-19T02:43:01;20.50;83.30
66928;DHT22;59882;45.624;11.698;2023-09-19T02:45:27;20.50;83.30
66928;DHT22;59882;45.624;11.698;2023-09-19T02:47:53;20.50;83.40
66928;DHT22;59882;45.624;11.698;2023-09-19T02:50:20;20.50;83.40
66928;DHT22;59882;45.624;11.698;2023-09-19T02:52:47;20.50;83.40
66928;DHT22;59882;45.624;11.698;2023-09-19T02:55:18;20.50;83.40
66928;DHT22;59882;45.624;11.698;2023-09-19T02:57:52;20.40;83.40
66928;DHT22;59882;45.624;11.698;2023-09-19T03:00:21;20.40;83.40
66928;DHT22;59882;45.624;11.698;2023-09-19T03:02:52;20.40;83.30
66928;DHT22;59882;45.624;11.698;2023-09-19T03:05:18;20.40;83.40
66928;DHT22;59882;45.624;11.698;2023-09-19T03:07:44;20.40;83.40
66928;DHT22;59882;45.624;11.698;2023-09-19T03:10:12;20.40;83.50
66928;DHT22;59882;45.624;11.698;2023-09-19T03:12:40;20.40;83.50
66928;DHT22;59882;45.624;11.698;2023-09-19T03:15:06;20.40;83.50
66928;DHT22;59882;45.624;11.698;2023-09-19T03:17:34;20.30;83.50
66928;DHT22;59882;45.624;11.698;2023-09-19T03:19:59;20.20;83.50
66928;DHT22;59882;45.624;11.698;2023-09-19T03:22:26;20.20;83.50
66928;DHT22;59882;45.624;11.698;2023-09-19T03:24:52;20.20;83.50
66928;DHT22;59882;45.624;11.698;2023-09-19T03:27:18;20.20;83.60
66928;DHT22;59882;45.624;11.698;2023-09-19T03:29:44;20.20;83.70
66928;DHT22;59882;45.624;11.698;2023-09-19T03:32:09;20.10;83.60
66928;DHT22;59882;45.624;11.698;2023-09-19T03:34:37;20.20;83.70
66928;DHT22;59882;45.624;11.698;2023-09-19T03:37:06;20.20;83.60
66928;DHT22;59882;45.624;11.698;2023-09-19T03:39:32;20.20;83.60
66928;DHT22;59882;45.624;11.698;2023-09-19T03:41:58;20.10;83.60
66928;DHT22;59882;45.624;11.698;2023-09-19T03:44:23;20.10;83.60
66928;DHT22;59882;45.624;11.698;2023-09-19T03:46:49;20.10;83.60
66928;DHT22;59882;45.624;11.698;2023-09-19T03:49:14;20.10;83.60
66928;DHT22;59882;45.624;11.698;2023-09-19T03:51:40;20.10;83.60
66928;DHT22;59882;45.624;11.698;2023-09-19T03:54:07;20.10;83.50
66928;DHT22;59882;45.624;11.698;2023-09-19T03:56:33;20.10;83.40
66928;DHT22;59882;45.624;11.698;2023-09-19T03:58:59;20.00;83.40
66928;DHT22;59882;45.624;11.698;2023-09-19T04:01:24;20.00;83.30
66928;DHT22;59882;45.624;11.698;2023-09-19T04:03:53;20.00;83.40
66928;DHT22;59882;45.624;11.698;2023-09-19T04:06:19;20.00;83.30
66928;DHT22;59882;45.624;11.698;2023-09-19T04:08:44;20.00;83.30
66928;DHT22;59882;45.624;11.698;2023-09-19T04:11:11;19.90;83.30
66928;DHT22;59882;45.624;11.698;2023-09-19T04:13:37;19.90;83.40
66928;DHT22;59882;45.624;11.698;2023-09-19T04:16:03;19.90;83.40
66928;DHT22;59882;45.624;11.698;2023-09-19T04:18:38;19.90;83.40
66928;DHT22;59882;45.624;11.698;2023-09-19T04:21:05;19.90;83.40
66928;DHT22;59882;45.624;11.698;2023-09-19T04:23:32;19.90;83.40
66928;DHT22;59882;45.624;11.698;2023-09-19T04:25:58;19.90;83.40
66928;DHT22;59882;45.624;11.698;2023-09-19T04:28:24;19.90;83.40
66928;DHT22;59882;45.624;11.698;2023-09-19T04:30:50;19.90;83.50
66928;DHT22;59882;45.624;11.698;2023-09-19T04:33:15;19.90;83.40
66928;DHT22;59882;45.624;11.698;2023-09-19T04:35:41;19.80;83.50
66928;DHT22;59882;45.624;11.698;2023-09-19T04:38:10;19.80;83.50
66928;DHT22;59882;45.624;11.698;2023-09-19T04:40:35;19.80;83.40
66928;DHT22;59882;45.624;11.698;2023-09-19T04:43:01;19.80;83.30
66928;DHT22;59882;45.624;11.698;2023-09-19T04:45:27;19.80;83.20
66928;DHT22;59882;45.624;11.698;2023-09-19T04:47:53;19.80;83.10
66928;DHT22;59882;45.624;11.698;2023-09-19T04:50:19;19.80;83.10
66928;DHT22;59882;45.624;11.698;2023-09-19T04:52:49;19.80;83.00
66928;DHT22;59882;45.624;11.698;2023-09-19T04:55:16;19.70;83.00
66928;DHT22;59882;45.624;11.698;2023-09-19T04:57:52;19.70;83.00
66928;DHT22;59882;45.624;11.698;2023-09-19T05:00:20;19.70;83.00
66928;DHT22;59882;45.624;11.698;2023-09-19T05:02:52;19.70;83.00
66928;DHT22;59882;45.624;11.698;2023-09-19T05:05:20;19.60;83.00
66928;DHT22;59882;45.624;11.698;2023-09-19T05:07:48;19.60;83.00
66928;DHT22;59882;45.624;11.698;2023-09-19T05:10:14;19.60;83.10
66928;DHT22;59882;45.624;11.698;2023-09-19T05:12:40;19.60;83.10
66928;DHT22;59882;45.624;11.698;2023-09-19T05:15:07;19.60;83.10
66928;DHT22;59882;45.624;11.698;2023-09-19T05:17:33;19.60;83.20
66928;DHT22;59882;45.624;11.698;2023-09-19T05:20:00;19.60;83.30
66928;DHT22;59882;45.624;11.698;2023-09-19T05:22:50;19.60;83.50
66928;DHT22;59882;45.624;11.698;2023-09-19T05:25:16;19.60;83.30
66928;DHT22;59882;45.624;11.698;2023-09-19T05:27:44;19.60;83.20
66928;DHT22;59882;45.624;11.698;2023-09-19T05:30:10;19.60;83.10
66928;DHT22;59882;45.624;11.698;2023-09-19T05:32:36;19.60;83.00
66928;DHT22;59882;45.624;11.698;2023-09-19T05:35:01;19.60;83.00
66928;DHT22;59882;45.624;11.698;2023-09-19T05:37:28;19.60;83.10
66928;DHT22;59882;45.624;11.698;2023-09-19T05:39:54;19.70;83.20
66928;DHT22;59882;45.624;11.698;2023-09-19T05:42:20;19.70;83.10
66928;DHT22;59882;45.624;11.698;2023-09-19T05:44:46;19.70;83.10
66928;DHT22;59882;45.624;11.698;2023-09-19T05:47:11;19.80;83.20
66928;DHT22;59882;45.624;11.698;2023-09-19T05:49:38;19.80;83.30
66928;DHT22;59882;45.624;11.698;2023-09-19T05:52:07;19.80;83.30
66928;DHT22;59882;45.624;11.698;2023-09-19T05:54:33;19.90;83.50
66928;DHT22;59882;45.624;11.698;2023-09-19T05:57:00;19.90;83.50
66928;DHT22;59882;45.624;11.698;2023-09-19T05:59:25;19.90;83.70
66928;DHT22;59882;45.624;11.698;2023-09-19T06:01:51;20.00;84.00
66928;DHT22;59882;45.624;11.698;2023-09-19T06:04:17;20.10;84.10
66928;DHT22;59882;45.624;11.698;2023-09-19T06:06:44;20.10;84.00
66928;DHT22;59882;45.624;11.698;2023-09-19T06:09:10;20.10;84.10
66928;DHT22;59882;45.624;11.698;2023-09-19T06:11:36;20.20;84.10
66928;DHT22;59882;45.624;11.698;2023-09-19T06:14:02;20.30;84.20
66928;DHT22;59882;45.624;11.698;2023-09-19T06:16:29;20.30;84.20
66928;DHT22;59882;45.624;11.698;2023-09-19T06:18:55;20.40;84.10
66928;DHT22;59882;45.624;11.698;2023-09-19T06:21:24;20.40;84.10
66928;DHT22;59882;45.624;11.698;2023-09-19T06:23:50;20.40;84.00
66928;DHT22;59882;45.624;11.698;2023-09-19T06:26:16;20.50;84.00
66928;DHT22;59882;45.624;11.698;2023-09-19T06:28:42;20.50;83.90
66928;DHT22;59882;45.624;11.698;2023-09-19T06:31:09;20.60;83.80
66928;DHT22;59882;45.624;11.698;2023-09-19T06:33:38;20.70;83.50
66928;DHT22;59882;45.624;11.698;2023-09-19T06:36:07;20.70;83.50
66928;DHT22;59882;45.624;11.698;2023-09-19T06:38:33;20.80;83.30
66928;DHT22;59882;45.624;11.698;2023-09-19T06:41:04;20.80;83.20
66928;DHT22;59882;45.624;11.698;2023-09-19T06:43:33;20.90;83.00
66928;DHT22;59882;45.624;11.698;2023-09-19T06:46:00;20.90;83.00
66928;DHT22;59882;45.624;11.698;2023-09-19T06:48:26;20.90;82.90
66928;DHT22;59882;45.624;11.698;2023-09-19T06:50:56;21.00;82.80
66928;DHT22;59882;45.624;11.698;2023-09-19T06:53:24;21.10;82.70
66928;DHT22;59882;45.624;11.698;2023-09-19T06:55:51;21.10;82.80
66928;DHT22;59882;45.624;11.698;2023-09-19T06:58:16;21.20;82.80
66928;DHT22;59882;45.624;11.698;2023-09-19T07:00:42;21.20;82.70
66928;DHT22;59882;45.624;11.698;2023-09-19T07:03:08;21.30;82.80
66928;DHT22;59882;45.624;11.698;2023-09-19T07:05:37;21.40;82.60
66928;DHT22;59882;45.624;11.698;2023-09-19T07:08:05;21.40;82.70
66928;DHT22;59882;45.624;11.698;2023-09-19T07:10:32;21.50;82.60
66928;DHT22;59882;45.624;11.698;2023-09-19T07:12:59;21.50;82.50
66928;DHT22;59882;45.624;11.698;2023-09-19T07:15:26;21.50;82.50
66928;DHT22;59882;45.624;11.698;2023-09-19T07:17:52;21.60;82.60
66928;DHT22;59882;45.624;11.698;2023-09-19T07:20:19;21.60;82.60
66928;DHT22;59882;45.624;11.698;2023-09-19T07:22:45;21.70;82.50
66928;DHT22;59882;45.624;11.698;2023-09-19T07:25:11;21.70;82.50
66928;DHT22;59882;45.624;11.698;2023-09-19T07:27:40;21.80;82.60
66928;DHT22;59882;45.624;11.698;2023-09-19T07:30:06;21.90;82.50
66928;DHT22;59882;45.624;11.698;2023-09-19T07:32:33;21.90;82.50
66928;DHT22;59882;45.624;11.698;2023-09-19T07:35:02;21.90;82.40
66928;DHT22;59882;45.624;11.698;2023-09-19T07:37:29;22.00;82.40
66928;DHT22;59882;45.624;11.698;2023-09-19T07:39:56;22.10;82.80
66928;DHT22;59882;45.624;11.698;2023-09-19T07:42:22;22.10;82.60
66928;DHT22;59882;45.624;11.698;2023-09-19T07:44:47;22.20;82.50
66928;DHT22;59882;45.624;11.698;2023-09-19T07:47:16;22.30;82.40
66928;DHT22;59882;45.624;11.698;2023-09-19T07:49:42;22.40;82.80
66928;DHT22;59882;45.624;11.698;2023-09-19T07:52:08;22.40;82.60
66928;DHT22;59882;45.624;11.698;2023-09-19T07:54:35;22.40;82.50
66928;DHT22;59882;45.624;11.698;2023-09-19T07:57:02;22.50;82.20
66928;DHT22;59882;45.624;11.698;2023-09-19T07:59:27;22.50;82.00
66928;DHT22;59882;45.624;11.698;2023-09-19T08:01:53;22.60;81.70
66928;DHT22;59882;45.624;11.698;2023-09-19T08:04:19;22.70;81.40
66928;DHT22;59882;45.624;11.698;2023-09-19T08:06:45;22.70;81.10
66928;DHT22;59882;45.624;11.698;2023-09-19T08:09:11;22.80;81.00
66928;DHT22;59882;45.624;11.698;2023-09-19T08:11:38;22.80;81.10
66928;DHT22;59882;45.624;11.698;2023-09-19T08:14:04;22.90;81.30
66928;DHT22;59882;45.624;11.698;2023-09-19T08:16:33;22.90;81.20
66928;DHT22;59882;45.624;11.698;2023-09-19T08:18:59;23.00;81.00
66928;DHT22;59882;45.624;11.698;2023-09-19T08:21:25;23.00;81.00
66928;DHT22;59882;45.624;11.698;2023-09-19T08:23:53;23.10;80.80
66928;DHT22;59882;45.624;11.698;2023-09-19T08:26:18;23.20;80.80
66928;DHT22;59882;45.624;11.698;2023-09-19T08:28:45;23.20;80.60
66928;DHT22;59882;45.624;11.698;2023-09-19T08:31:10;23.30;80.40
66928;DHT22;59882;45.624;11.698;2023-09-19T08:33:36;23.30;80.20
66928;DHT22;59882;45.624;11.698;2023-09-19T08:36:03;23.40;80.20
66928;DHT22;59882;45.624;11.698;2023-09-19T08:38:34;23.40;80.00
66928;DHT22;59882;45.624;11.698;2023-09-19T08:41:00;23.40;79.80
66928;DHT22;59882;45.624;11.698;2023-09-19T08:43:27;23.50;79.50
66928;DHT22;59882;45.624;11.698;2023-09-19T08:46:03;23.60;79.70
66928;DHT22;59882;45.624;11.698;2023-09-19T08:48:32;23.60;79.60
66928;DHT22;59882;45.624;11.698;2023-09-19T08:56:14;23.80;78.90
66928;DHT22;59882;45.624;11.698;2023-09-19T08:58:53;23.80;78.60
66928;DHT22;59882;45.624;11.698;2023-09-19T09:01:20;23.80;78.30
66928;DHT22;59882;45.624;11.698;2023-09-19T09:03:53;23.90;78.40
66928;DHT22;59882;45.624;11.698;2023-09-19T09:06:20;23.90;78.90
66928;DHT22;59882;45.624;11.698;2023-09-19T09:08:46;23.90;78.80
66928;DHT22;59882;45.624;11.698;2023-09-19T09:11:17;23.90;78.40
66928;DHT22;59882;45.624;11.698;2023-09-19T09:13:46;24.00;78.00
66928;DHT22;59882;45.624;11.698;2023-09-19T09:16:13;24.10;77.90
66928;DHT22;59882;45.624;11.698;2023-09-19T09:18:39;24.20;77.30
66928;DHT22;59882;45.624;11.698;2023-09-19T09:21:05;24.30;77.40
66928;DHT22;59882;45.624;11.698;2023-09-19T09:23:31;24.30;77.50
66928;DHT22;59882;45.624;11.698;2023-09-19T09:25:58;24.40;77.20
66928;DHT22;59882;45.624;11.698;2023-09-19T09:28:28;24.40;77.00
66928;DHT22;59882;45.624;11.698;2023-09-19T09:30:59;24.50;76.90
66928;DHT22;59882;45.624;11.698;2023-09-19T09:33:25;24.60;76.60
66928;DHT22;59882;45.624;11.698;2023-09-19T09:35:55;24.70;76.70
66928;DHT22;59882;45.624;11.698;2023-09-19T09:38:46;24.70;76.60
66928;DHT22;59882;45.624;11.698;2023-09-19T09:41:15;24.90;75.80
66928;DHT22;59882;45.624;11.698;2023-09-19T09:43:52;24.90;75.20
66928;DHT22;59882;45.624;11.698;2023-09-19T09:46:20;24.90;74.50
66928;DHT22;59882;45.624;11.698;2023-09-19T09:48:46;24.90;75.10
66928;DHT22;59882;45.624;11.698;2023-09-19T09:51:32;25.00;74.80
66928;DHT22;59882;45.624;11.698;2023-09-19T09:54:31;25.10;74.30
66928;DHT22;59882;45.624;11.698;2023-09-19T09:57:03;25.20;73.00
66928;DHT22;59882;45.624;11.698;2023-09-19T09:59:56;25.30;72.90
66928;DHT22;59882;45.624;11.698;2023-09-19T10:02:41;25.40;73.10
66928;DHT22;59882;45.624;11.698;2023-09-19T10:05:14;25.40;72.30
66928;DHT22;59882;45.624;11.698;2023-09-19T10:08:11;25.40;70.80
66928;DHT22;59882;45.624;11.698;2023-09-19T10:10:41;25.40;71.60
66928;DHT22;59882;45.624;11.698;2023-09-19T10:13:16;25.40;72.10
66928;DHT22;59882;45.624;11.698;2023-09-19T10:15:49;25.50;71.30
66928;DHT22;59882;45.624;11.698;2023-09-19T10:18:19;25.60;71.30
66928;DHT22;59882;45.624;11.698;2023-09-19T10:20:46;25.60;71.30
66928;DHT22;59882;45.624;11.698;2023-09-19T10:23:12;25.70;71.00
66928;DHT22;59882;45.624;11.698;2023-09-19T10:25:40;25.80;69.40
66928;DHT22;59882;45.624;11.698;2023-09-19T10:28:08;25.80;70.30
66928;DHT22;59882;45.624;11.698;2023-09-19T10:30:46;25.90;70.80
66928;DHT22;59882;45.624;11.698;2023-09-19T10:33:17;26.00;70.50
66928;DHT22;59882;45.624;11.698;2023-09-19T10:35:45;26.00;70.10
66928;DHT22;59882;45.624;11.698;2023-09-19T10:38:12;26.10;70.00
66928;DHT22;59882;45.624;11.698;2023-09-19T10:40:38;26.20;68.90
66928;DHT22;59882;45.624;11.698;2023-09-19T10:43:26;26.30;67.90
66928;DHT22;59882;45.624;11.698;2023-09-19T10:45:51;26.40;68.40
66928;DHT22;59882;45.624;11.698;2023-09-19T10:48:20;26.50;68.50
66928;DHT22;59882;45.624;11.698;2023-09-19T10:51:11;26.60;66.40
66928;DHT22;59882;45.624;11.698;2023-09-19T10:53:46;26.70;65.70
66928;DHT22;59882;45.624;11.698;2023-09-19T10:56:24;26.80;65.70
66928;DHT22;59882;45.624;11.698;2023-09-19T10:59:11;26.80;65.50
66928;DHT22;59882;45.624;11.698;2023-09-19T11:01:49;26.90;65.80
66928;DHT22;59882;45.624;11.698;2023-09-19T11:04:34;26.90;64.70
66928;DHT22;59882;45.624;11.698;2023-09-19T11:07:09;26.90;65.50
66928;DHT22;59882;45.624;11.698;2023-09-19T11:09:50;27.10;65.00
66928;DHT22;59882;45.624;11.698;2023-09-19T11:15:02;27.40;64.50
66928;DHT22;59882;45.624;11.698;2023-09-19T11:17:40;27.50;63.00
66928;DHT22;59882;45.624;11.698;2023-09-19T11:30:33;28.00;62.40
66928;DHT22;59882;45.624;11.698;2023-09-19T11:36:05;28.10;60.90
66928;DHT22;59882;45.624;11.698;2023-09-19T11:49:18;28.50;60.30
66928;DHT22;59882;45.624;11.698;2023-09-19T11:51:50;28.50;59.50
66928;DHT22;59882;45.624;11.698;2023-09-19T11:54:20;28.60;59.30
66928;DHT22;59882;45.624;11.698;2023-09-19T11:56:53;28.80;59.50
66928;DHT22;59882;45.624;11.698;2023-09-19T11:59:31;28.90;59.00
66928;DHT22;59882;45.624;11.698;2023-09-19T12:02:01;29.00;57.60
66928;DHT22;59882;45.624;11.698;2023-09-19T12:04:39;29.20;58.20
66928;DHT22;59882;45.624;11.698;2023-09-19T12:07:12;29.40;58.70
66928;DHT22;59882;45.624;11.698;2023-09-19T12:09:42;29.60;57.80
66928;DHT22;59882;45.624;11.698;2023-09-19T12:12:39;29.90;55.60
66928;DHT22;59882;45.624;11.698;2023-09-19T12:15:05;30.10;55.60
66928;DHT22;59882;45.624;11.698;2023-09-19T12:17:38;30.30;55.10
66928;DHT22;59882;45.624;11.698;2023-09-19T12:20:06;30.50;53.40
66928;DHT22;59882;45.624;11.698;2023-09-19T12:22:43;30.80;51.50
66928;DHT22;59882;45.624;11.698;2023-09-19T12:25:10;31.10;51.20
66928;DHT22;59882;45.624;11.698;2023-09-19T12:30:10;33.30;48.00
66928;DHT22;59882;45.624;11.698;2023-09-19T12:32:39;35.00;43.70
66928;DHT22;59882;45.624;11.698;2023-09-19T12:35:06;36.80;39.40
66928;DHT22;59882;45.624;11.698;2023-09-19T12:37:45;38.50;38.00
66928;DHT22;59882;45.624;11.698;2023-09-19T12:40:21;40.20;35.00
66928;DHT22;59882;45.624;11.698;2023-09-19T12:42:54;39.90;33.90
66928;DHT22;59882;45.624;11.698;2023-09-19T12:45:29;40.60;32.50
66928;DHT22;59882;45.624;11.698;2023-09-19T12:51:09;41.40;31.60
66928;DHT22;59882;45.624;11.698;2023-09-19T12:56:08;43.70;28.70
66928;DHT22;59882;45.624;11.698;2023-09-19T12:58:48;45.30;28.50
66928;DHT22;59882;45.624;11.698;2023-09-19T13:01:15;46.70;26.80
66928;DHT22;59882;45.624;11.698;2023-09-19T13:03:41;47.90;25.50
66928;DHT22;59882;45.624;11.698;2023-09-19T13:06:07;48.70;24.00
66928;DHT22;59882;45.624;11.698;2023-09-19T13:08:37;49.20;24.50
66928;DHT22;59882;45.624;11.698;2023-09-19T13:11:16;48.00;24.80
66928;DHT22;59882;45.624;11.698;2023-09-19T13:14:13;47.30;24.30
66928;DHT22;59882;45.624;11.698;2023-09-19T13:17:12;46.00;25.30
66928;DHT22;59882;45.624;11.698;2023-09-19T13:19:47;43.50;27.20
66928;DHT22;59882;45.624;11.698;2023-09-19T13:22:41;41.70;29.20
66928;DHT22;59882;45.624;11.698;2023-09-19T13:25:16;40.00;31.70
66928;DHT22;59882;45.624;11.698;2023-09-19T13:27:50;38.60;33.50
66928;DHT22;59882;45.624;11.698;2023-09-19T13:30:18;37.50;35.40
66928;DHT22;59882;45.624;11.698;2023-09-19T13:32:44;36.50;36.30
66928;DHT22;59882;45.624;11.698;2023-09-19T13:35:13;35.60;37.60
66928;DHT22;59882;45.624;11.698;2023-09-19T13:37:39;35.00;39.10
66928;DHT22;59882;45.624;11.698;2023-09-19T13:40:09;34.40;40.40
66928;DHT22;59882;45.624;11.698;2023-09-19T13:42:35;33.90;40.90
66928;DHT22;59882;45.624;11.698;2023-09-19T13:45:04;33.40;42.10
66928;DHT22;59882;45.624;11.698;2023-09-19T13:47:31;33.00;43.00
66928;DHT22;59882;45.624;11.698;2023-09-19T13:49:58;32.70;43.90
66928;DHT22;59882;45.624;11.698;2023-09-19T13:52:24;32.40;44.50
66928;DHT22;59882;45.624;11.698;2023-09-19T13:54:53;32.10;44.80
66928;DHT22;59882;45.624;11.698;2023-09-19T13:57:19;31.90;44.90
66928;DHT22;59882;45.624;11.698;2023-09-19T13:59:44;31.60;45.40
66928;DHT22;59882;45.624;11.698;2023-09-19T14:02:10;31.40;45.50
66928;DHT22;59882;45.624;11.698;2023-09-19T14:04:36;31.20;46.60
66928;DHT22;59882;45.624;11.698;2023-09-19T14:07:02;31.10;47.40
66928;DHT22;59882;45.624;11.698;2023-09-19T14:09:29;31.00;48.10
66928;DHT22;59882;45.624;11.698;2023-09-19T14:11:56;30.90;48.30
66928;DHT22;59882;45.624;11.698;2023-09-19T14:14:22;31.40;47.90
66928;DHT22;59882;45.624;11.698;2023-09-19T14:16:48;32.60;45.80
66928;DHT22;59882;45.624;11.698;2023-09-19T14:19:14;34.00;43.10
66928;DHT22;59882;45.624;11.698;2023-09-19T14:21:42;34.60;41.40
66928;DHT22;59882;45.624;11.698;2023-09-19T14:24:08;34.50;41.30
66928;DHT22;59882;45.624;11.698;2023-09-19T14:26:35;34.10;41.60
66928;DHT22;59882;45.624;11.698;2023-09-19T14:29:01;33.70;41.90
66928;DHT22;59882;45.624;11.698;2023-09-19T14:31:27;33.90;41.80
66928;DHT22;59882;45.624;11.698;2023-09-19T14:33:56;34.70;40.90
66928;DHT22;59882;45.624;11.698;2023-09-19T14:36:25;35.50;39.50
66928;DHT22;59882;45.624;11.698;2023-09-19T14:38:55;36.30;38.60
66928;DHT22;59882;45.624;11.698;2023-09-19T14:41:20;37.00;37.40
66928;DHT22;59882;45.624;11.698;2023-09-19T14:43:46;37.50;35.80
66928;DHT22;59882;45.624;11.698;2023-09-19T14:46:12;38.00;34.80
66928;DHT22;59882;45.624;11.698;2023-09-19T14:48:39;38.30;34.40
66928;DHT22;59882;45.624;11.698;2023-09-19T14:51:06;38.50;34.00
66928;DHT22;59882;45.624;11.698;2023-09-19T14:53:34;38.60;34.40
66928;DHT22;59882;45.624;11.698;2023-09-19T14:56:01;38.70;33.50
66928;DHT22;59882;45.624;11.698;2023-09-19T14:58:33;38.70;32.60
66928;DHT22;59882;45.624;11.698;2023-09-19T15:01:08;38.70;33.30
66928;DHT22;59882;45.624;11.698;2023-09-19T15:03:36;38.80;32.40
66928;DHT22;59882;45.624;11.698;2023-09-19T15:06:03;38.80;33.40
66928;DHT22;59882;45.624;11.698;2023-09-19T15:08:36;38.80;32.40
66928;DHT22;59882;45.624;11.698;2023-09-19T15:11:04;38.80;33.60
66928;DHT22;59882;45.624;11.698;2023-09-19T15:13:31;38.80;33.60
66928;DHT22;59882;45.624;11.698;2023-09-19T15:16:01;38.80;33.00
66928;DHT22;59882;45.624;11.698;2023-09-19T15:18:27;38.70;32.70
66928;DHT22;59882;45.624;11.698;2023-09-19T15:20:54;38.70;33.50
66928;DHT22;59882;45.624;11.698;2023-09-19T15:23:20;38.70;33.10
66928;DHT22;59882;45.624;11.698;2023-09-19T15:25:49;38.60;33.50
66928;DHT22;59882;45.624;11.698;2023-09-19T15:28:15;38.50;33.80
66928;DHT22;59882;45.624;11.698;2023-09-19T15:30:41;38.50;33.80
66928;DHT22;59882;45.624;11.698;2023-09-19T15:33:06;38.40;33.60
66928;DHT22;59882;45.624;11.698;2023-09-19T15:35:33;38.20;34.10
66928;DHT22;59882;45.624;11.698;2023-09-19T15:37:58;38.10;34.40
66928;DHT22;59882;45.624;11.698;2023-09-19T15:40:26;38.00;34.70
66928;DHT22;59882;45.624;11.698;2023-09-19T15:42:54;38.00;35.00
66928;DHT22;59882;45.624;11.698;2023-09-19T15:45:19;37.80;34.70
66928;DHT22;59882;45.624;11.698;2023-09-19T15:47:45;37.60;34.80
66928;DHT22;59882;45.624;11.698;2023-09-19T15:50:11;37.50;33.80
66928;DHT22;59882;45.624;11.698;2023-09-19T15:52:39;37.20;34.40
66928;DHT22;59882;45.624;11.698;2023-09-19T15:55:05;36.90;35.00
66928;DHT22;59882;45.624;11.698;2023-09-19T15:57:37;36.50;35.30
66928;DHT22;59882;45.624;11.698;2023-09-19T16:00:04;36.00;36.20
66928;DHT22;59882;45.624;11.698;2023-09-19T16:02:35;35.30;36.90
66928;DHT22;59882;45.624;11.698;2023-09-19T16:05:01;34.60;37.90
66928;DHT22;59882;45.624;11.698;2023-09-19T16:07:31;34.20;39.00
66928;DHT22;59882;45.624;11.698;2023-09-19T16:09:56;33.80;39.70
66928;DHT22;59882;45.624;11.698;2023-09-19T16:12:24;33.50;40.50
66928;DHT22;59882;45.624;11.698;2023-09-19T16:14:50;33.40;40.90
66928;DHT22;59882;45.624;11.698;2023-09-19T16:17:15;33.20;41.70
66928;DHT22;59882;45.624;11.698;2023-09-19T16:19:41;33.00;41.80